sensor_id;sensor_type;location;lat;lon;timestamp;temperature;humidity
53282;DHT22;39167;52.794;6.892;2023-05-14T00:01:54;13.90;99.90
53282;DHT22;39167;52.794;6.892;2023-05-14T00:04:20;13.90;99.90
53282;DHT22;39167;52.794;6.892;2023-05-14T00:06:46;13.90;99.90
53282;DHT22;39167;52.794;6.892;2023-05-14T00:09:12;13.90;99.90
53282;DHT22;39167;52.794;6.892;2023-05-14T00:11:38;13.90;99.90
53282;DHT22;39167;52.794;6.892;2023-05-14T00:14:03;13.90;99.90
53282;DHT22;39167;52.794;6.892;2023-05-14T00:16:29;13.80;99.90
53282;DHT22;39167;52.794;6.892;2023-05-14T00:18:55;13.80;99.90
53282;DHT22;39167;52.794;6.892;2023-05-14T00:21:21;13.70;99.90
53282;DHT22;39167;52.794;6.892;2023-05-14T00:23:47;13.80;99.90
53282;DHT22;39167;52.794;6.892;2023-05-14T00:26:12;13.70;99.90
53282;DHT22;39167;52.794;6.892;2023-05-14T00:28:38;13.60;99.90
53282;DHT22;39167;52.794;6.892;2023-05-14T00:31:04;13.70;99.90
53282;DHT22;39167;52.794;6.892;2023-05-14T00:33:30;13.60;99.90
53282;DHT22;39167;52.794;6.892;2023-05-14T00:35:55;13.60;99.90
53282;DHT22;39167;52.794;6.892;2023-05-14T00:38:21;13.60;99.90
53282;DHT22;39167;52.794;6.892;2023-05-14T00:40:48;13.60;99.90
53282;DHT22;39167;52.794;6.892;2023-05-14T00:43:20;13.60;99.90
53282;DHT22;39167;52.794;6.892;2023-05-14T00:45:49;13.60;99.90
53282;DHT22;39167;52.794;6.892;2023-05-14T00:48:15;13.60;99.90
53282;DHT22;39167;52.794;6.892;2023-05-14T00:50:41;13.60;99.90
53282;DHT22;39167;52.794;6.892;2023-05-14T00:53:08;13.60;99.90
53282;DHT22;39167;52.794;6.892;2023-05-14T00:55:38;13.60;99.90
53282;DHT22;39167;52.794;6.892;2023-05-14T00:58:10;13.50;99.90
53282;DHT22;39167;52.794;6.892;2023-05-14T01:00:37;13.50;99.90
53282;DHT22;39167;52.794;6.892;2023-05-14T01:03:04;13.50;99.90
53282;DHT22;39167;52.794;6.892;2023-05-14T01:05:49;13.40;99.90
53282;DHT22;39167;52.794;6.892;2023-05-14T01:10:59;13.30;99.90
53282;DHT22;39167;52.794;6.892;2023-05-14T01:13:58;13.30;99.90
53282;DHT22;39167;52.794;6.892;2023-05-14T01:16:27;13.20;99.90
53282;DHT22;39167;52.794;6.892;2023-05-14T01:18:55;13.20;99.90
53282;DHT22;39167;52.794;6.892;2023-05-14T01:21:38;13.20;99.90
53282;DHT22;39167;52.794;6.892;2023-05-14T01:24:06;13.20;99.90
53282;DHT22;39167;52.794;6.892;2023-05-14T01:26:32;13.10;99.90
53282;DHT22;39167;52.794;6.892;2023-05-14T01:29:21;13.20;99.90
53282;DHT22;39167;52.794;6.892;2023-05-14T01:31:50;13.20;99.90
53282;DHT22;39167;52.794;6.892;2023-05-14T01:34:23;13.20;99.90
53282;DHT22;39167;52.794;6.892;2023-05-14T01:36:50;13.20;99.90
53282;DHT22;39167;52.794;6.892;2023-05-14T01:39:16;13.20;99.90
53282;DHT22;39167;52.794;6.892;2023-05-14T01:41:44;13.20;99.90
53282;DHT22;39167;52.794;6.892;2023-05-14T01:44:10;13.20;99.90
53282;DHT22;39167;52.794;6.892;2023-05-14T01:46:36;13.20;99.90
53282;DHT22;39167;52.794;6.892;2023-05-14T01:49:02;13.20;99.90
53282;DHT22;39167;52.794;6.892;2023-05-14T01:51:28;13.20;99.90
53282;DHT22;39167;52.794;6.892;2023-05-14T01:53:54;13.10;99.90
53282;DHT22;39167;52.794;6.892;2023-05-14T01:56:22;13.10;99.90
53282;DHT22;39167;52.794;6.892;2023-05-14T01:58:48;13.10;99.90
53282;DHT22;39167;52.794;6.892;2023-05-14T02:01:14;13.10;99.90
53282;DHT22;39167;52.794;6.892;2023-05-14T02:03:40;13.10;99.90
53282;DHT22;39167;52.794;6.892;2023-05-14T02:06:05;13.10;99.90
53282;DHT22;39167;52.794;6.892;2023-05-14T02:08:31;13.10;99.90
53282;DHT22;39167;52.794;6.892;2023-05-14T02:10:57;13.00;99.90
53282;DHT22;39167;52.794;6.892;2023-05-14T02:13:24;13.00;99.90
53282;DHT22;39167;52.794;6.892;2023-05-14T02:15:50;13.00;99.90
53282;DHT22;39167;52.794;6.892;2023-05-14T02:18:16;13.00;99.90
53282;DHT22;39167;52.794;6.892;2023-05-14T02:20:41;13.00;99.90
53282;DHT22;39167;52.794;6.892;2023-05-14T02:23:07;12.90;99.90
53282;DHT22;39167;52.794;6.892;2023-05-14T02:25:33;12.90;99.90
53282;DHT22;39167;52.794;6.892;2023-05-14T02:27:58;12.90;99.90
53282;DHT22;39167;52.794;6.892;2023-05-14T02:30:24;12.90;99.90
53282;DHT22;39167;52.794;6.892;2023-05-14T02:32:50;12.80;99.90
53282;DHT22;39167;52.794;6.892;2023-05-14T02:35:16;12.80;99.90
53282;DHT22;39167;52.794;6.892;2023-05-14T02:37:41;12.70;99.90
53282;DHT22;39167;52.794;6.892;2023-05-14T02:40:07;12.70;99.90
53282;DHT22;39167;52.794;6.892;2023-05-14T02:42:33;12.70;99.90
53282;DHT22;39167;52.794;6.892;2023-05-14T02:44:59;12.70;99.90
53282;DHT22;39167;52.794;6.892;2023-05-14T02:47:25;12.70;99.90
53282;DHT22;39167;52.794;6.892;2023-05-14T02:49:51;12.70;99.90
53282;DHT22;39167;52.794;6.892;2023-05-14T02:52:16;12.70;99.90
53282;DHT22;39167;52.794;6.892;2023-05-14T02:54:42;12.70;99.90
53282;DHT22;39167;52.794;6.892;2023-05-14T02:57:08;12.60;99.90
53282;DHT22;39167;52.794;6.892;2023-05-14T02:59:33;12.60;99.90
53282;DHT22;39167;52.794;6.892;2023-05-14T03:01:59;12.60;99.90
53282;DHT22;39167;52.794;6.892;2023-05-14T03:04:25;12.60;99.90
53282;DHT22;39167;52.794;6.892;2023-05-14T03:06:51;12.60;99.90
53282;DHT22;39167;52.794;6.892;2023-05-14T03:09:16;12.60;99.90
53282;DHT22;39167;52.794;6.892;2023-05-14T03:11:42;12.60;99.90
53282;DHT22;39167;52.794;6.892;2023-05-14T03:14:08;12.60;99.90
53282;DHT22;39167;52.794;6.892;2023-05-14T03:16:33;12.50;99.90
53282;DHT22;39167;52.794;6.892;2023-05-14T03:18:59;12.50;99.90
53282;DHT22;39167;52.794;6.892;2023-05-14T03:21:25;12.50;99.90
53282;DHT22;39167;52.794;6.892;2023-05-14T03:23:51;12.40;99.90
53282;DHT22;39167;52.794;6.892;2023-05-14T03:26:17;12.50;99.90
53282;DHT22;39167;52.794;6.892;2023-05-14T03:28:43;12.40;99.90
53282;DHT22;39167;52.794;6.892;2023-05-14T03:31:09;12.40;99.90
53282;DHT22;39167;52.794;6.892;2023-05-14T03:33:35;12.40;99.90
53282;DHT22;39167;52.794;6.892;2023-05-14T03:36:00;12.40;99.90
53282;DHT22;39167;52.794;6.892;2023-05-14T03:38:26;12.30;99.90
53282;DHT22;39167;52.794;6.892;2023-05-14T03:40:52;12.30;99.90
53282;DHT22;39167;52.794;6.892;2023-05-14T03:43:18;12.20;99.90
53282;DHT22;39167;52.794;6.892;2023-05-14T03:45:43;12.10;99.90
53282;DHT22;39167;52.794;6.892;2023-05-14T03:48:09;12.10;99.90
53282;DHT22;39167;52.794;6.892;2023-05-14T03:50:35;12.00;99.90
53282;DHT22;39167;52.794;6.892;2023-05-14T03:53:00;12.00;99.90
53282;DHT22;39167;52.794;6.892;2023-05-14T03:55:26;12.00;99.90
53282;DHT22;39167;52.794;6.892;2023-05-14T03:57:52;12.00;99.90
53282;DHT22;39167;52.794;6.892;2023-05-14T04:00:18;12.20;99.90
53282;DHT22;39167;52.794;6.892;2023-05-14T04:02:43;12.00;99.90
53282;DHT22;39167;52.794;6.892;2023-05-14T04:05:09;12.00;99.90
53282;DHT22;39167;52.794;6.892;2023-05-14T04:07:35;12.00;99.90
53282;DHT22;39167;52.794;6.892;2023-05-14T04:10:02;11.90;99.90
53282;DHT22;39167;52.794;6.892;2023-05-14T04:12:28;12.00;99.90
53282;DHT22;39167;52.794;6.892;2023-05-14T04:14:53;12.00;99.90
53282;DHT22;39167;52.794;6.892;2023-05-14T04:17:19;12.00;99.90
53282;DHT22;39167;52.794;6.892;2023-05-14T04:19:45;12.00;99.90
53282;DHT22;39167;52.794;6.892;2023-05-14T04:22:10;12.00;99.90
53282;DHT22;39167;52.794;6.892;2023-05-14T04:24:36;12.00;99.90
53282;DHT22;39167;52.794;6.892;2023-05-14T04:27:02;12.00;99.90
53282;DHT22;39167;52.794;6.892;2023-05-14T04:29:28;12.00;99.90
53282;DHT22;39167;52.794;6.892;2023-05-14T04:31:54;11.90;99.90
53282;DHT22;39167;52.794;6.892;2023-05-14T04:34:20;11.90;99.90
53282;DHT22;39167;52.794;6.892;2023-05-14T04:36:46;11.90;99.90
53282;DHT22;39167;52.794;6.892;2023-05-14T04:39:11;11.90;99.90
53282;DHT22;39167;52.794;6.892;2023-05-14T04:41:37;11.90;99.90
53282;DHT22;39167;52.794;6.892;2023-05-14T04:44:03;11.90;99.90
53282;DHT22;39167;52.794;6.892;2023-05-14T04:46:29;11.90;99.90
53282;DHT22;39167;52.794;6.892;2023-05-14T04:48:55;12.10;99.90
53282;DHT22;39167;52.794;6.892;2023-05-14T04:51:22;12.00;99.90
53282;DHT22;39167;52.794;6.892;2023-05-14T04:53:48;12.00;99.90
53282;DHT22;39167;52.794;6.892;2023-05-14T04:56:13;12.10;99.90
53282;DHT22;39167;52.794;6.892;2023-05-14T04:58:39;12.10;99.90
53282;DHT22;39167;52.794;6.892;2023-05-14T05:01:05;12.10;99.90
53282;DHT22;39167;52.794;6.892;2023-05-14T05:03:31;12.10;99.90
53282;DHT22;39167;52.794;6.892;2023-05-14T05:05:57;12.10;99.90
53282;DHT22;39167;52.794;6.892;2023-05-14T05:08:23;12.10;99.90
53282;DHT22;39167;52.794;6.892;2023-05-14T05:10:49;12.20;99.90
53282;DHT22;39167;52.794;6.892;2023-05-14T05:13:15;12.20;99.90
53282;DHT22;39167;52.794;6.892;2023-05-14T05:15:42;12.20;99.90
53282;DHT22;39167;52.794;6.892;2023-05-14T05:18:07;12.20;99.90
53282;DHT22;39167;52.794;6.892;2023-05-14T05:20:33;12.20;99.90
53282;DHT22;39167;52.794;6.892;2023-05-14T05:22:59;12.20;99.90
53282;DHT22;39167;52.794;6.892;2023-05-14T05:25:25;12.20;99.90
53282;DHT22;39167;52.794;6.892;2023-05-14T05:27:51;12.30;99.90
53282;DHT22;39167;52.794;6.892;2023-05-14T05:30:18;12.30;99.90
53282;DHT22;39167;52.794;6.892;2023-05-14T05:32:44;12.30;99.90
53282;DHT22;39167;52.794;6.892;2023-05-14T05:35:09;12.30;99.90
53282;DHT22;39167;52.794;6.892;2023-05-14T05:37:35;12.30;99.90
53282;DHT22;39167;52.794;6.892;2023-05-14T05:40:01;12.30;99.90
53282;DHT22;39167;52.794;6.892;2023-05-14T05:42:26;12.30;99.90
53282;DHT22;39167;52.794;6.892;2023-05-14T05:44:52;12.30;99.90
53282;DHT22;39167;52.794;6.892;2023-05-14T05:47:18;12.30;99.90
53282;DHT22;39167;52.794;6.892;2023-05-14T05:49:43;12.30;99.90
53282;DHT22;39167;52.794;6.892;2023-05-14T05:52:09;12.20;99.90
53282;DHT22;39167;52.794;6.892;2023-05-14T05:54:35;12.30;99.90
53282;DHT22;39167;52.794;6.892;2023-05-14T05:57:01;12.30;99.90
53282;DHT22;39167;52.794;6.892;2023-05-14T05:59:26;12.30;99.90
53282;DHT22;39167;52.794;6.892;2023-05-14T06:01:52;12.10;99.90
53282;DHT22;39167;52.794;6.892;2023-05-14T06:04:18;12.30;99.90
53282;DHT22;39167;52.794;6.892;2023-05-14T06:06:44;12.40;99.90
53282;DHT22;39167;52.794;6.892;2023-05-14T06:09:10;12.30;99.90
53282;DHT22;39167;52.794;6.892;2023-05-14T06:11:36;12.40;99.90
53282;DHT22;39167;52.794;6.892;2023-05-14T06:14:01;12.30;99.90
53282;DHT22;39167;52.794;6.892;2023-05-14T06:16:27;12.30;99.90
53282;DHT22;39167;52.794;6.892;2023-05-14T06:18:53;12.40;99.90
53282;DHT22;39167;52.794;6.892;2023-05-14T06:21:20;12.40;99.90
53282;DHT22;39167;52.794;6.892;2023-05-14T06:23:46;12.40;99.90
53282;DHT22;39167;52.794;6.892;2023-05-14T06:26:11;12.40;99.90
53282;DHT22;39167;52.794;6.892;2023-05-14T06:28:37;12.40;99.90
53282;DHT22;39167;52.794;6.892;2023-05-14T06:31:03;12.40;99.90
53282;DHT22;39167;52.794;6.892;2023-05-14T06:33:28;12.50;99.90
53282;DHT22;39167;52.794;6.892;2023-05-14T06:36:04;12.50;99.90
53282;DHT22;39167;52.794;6.892;2023-05-14T06:38:30;12.60;99.90
53282;DHT22;39167;52.794;6.892;2023-05-14T06:40:55;12.60;99.90
53282;DHT22;39167;52.794;6.892;2023-05-14T06:43:21;12.60;99.90
53282;DHT22;39167;52.794;6.892;2023-05-14T06:45:51;12.70;99.90
53282;DHT22;39167;52.794;6.892;2023-05-14T06:48:17;12.70;99.90
53282;DHT22;39167;52.794;6.892;2023-05-14T06:50:45;12.70;99.90
53282;DHT22;39167;52.794;6.892;2023-05-14T06:53:11;12.80;99.90
53282;DHT22;39167;52.794;6.892;2023-05-14T06:55:37;12.80;99.90
53282;DHT22;39167;52.794;6.892;2023-05-14T06:58:05;12.90;99.90
53282;DHT22;39167;52.794;6.892;2023-05-14T07:00:31;12.90;99.90
53282;DHT22;39167;52.794;6.892;2023-05-14T07:02:57;13.00;99.90
53282;DHT22;39167;52.794;6.892;2023-05-14T07:05:23;13.00;99.90
53282;DHT22;39167;52.794;6.892;2023-05-14T07:07:49;13.10;99.90
53282;DHT22;39167;52.794;6.892;2023-05-14T07:10:16;13.20;99.90
53282;DHT22;39167;52.794;6.892;2023-05-14T07:12:41;13.20;99.90
53282;DHT22;39167;52.794;6.892;2023-05-14T07:15:07;13.30;99.90
53282;DHT22;39167;52.794;6.892;2023-05-14T07:17:33;13.40;99.90
53282;DHT22;39167;52.794;6.892;2023-05-14T07:19:59;13.50;99.90
53282;DHT22;39167;52.794;6.892;2023-05-14T07:22:25;13.60;99.90
53282;DHT22;39167;52.794;6.892;2023-05-14T07:24:51;13.70;99.90
53282;DHT22;39167;52.794;6.892;2023-05-14T07:27:19;13.80;99.90
53282;DHT22;39167;52.794;6.892;2023-05-14T07:29:45;14.00;99.90
53282;DHT22;39167;52.794;6.892;2023-05-14T07:32:11;13.90;99.90
53282;DHT22;39167;52.794;6.892;2023-05-14T07:34:36;14.00;99.90
53282;DHT22;39167;52.794;6.892;2023-05-14T07:37:02;14.10;99.90
53282;DHT22;39167;52.794;6.892;2023-05-14T07:39:28;14.20;99.90
53282;DHT22;39167;52.794;6.892;2023-05-14T07:41:54;14.20;99.90
53282;DHT22;39167;52.794;6.892;2023-05-14T07:44:20;14.30;99.90
53282;DHT22;39167;52.794;6.892;2023-05-14T07:46:46;14.40;99.90
53282;DHT22;39167;52.794;6.892;2023-05-14T07:49:12;14.40;99.90
53282;DHT22;39167;52.794;6.892;2023-05-14T07:51:37;14.60;99.90
53282;DHT22;39167;52.794;6.892;2023-05-14T07:54:03;14.60;99.90
53282;DHT22;39167;52.794;6.892;2023-05-14T07:56:29;14.70;99.90
53282;DHT22;39167;52.794;6.892;2023-05-14T07:58:55;14.80;99.90
53282;DHT22;39167;52.794;6.892;2023-05-14T08:01:21;14.80;99.90
53282;DHT22;39167;52.794;6.892;2023-05-14T08:03:47;14.90;99.90
53282;DHT22;39167;52.794;6.892;2023-05-14T08:06:13;14.90;99.90
53282;DHT22;39167;52.794;6.892;2023-05-14T08:08:38;15.00;99.90
53282;DHT22;39167;52.794;6.892;2023-05-14T08:11:04;15.00;99.90
53282;DHT22;39167;52.794;6.892;2023-05-14T08:13:30;15.10;99.90
53282;DHT22;39167;52.794;6.892;2023-05-14T08:15:56;15.10;99.90
53282;DHT22;39167;52.794;6.892;2023-05-14T08:18:22;15.10;99.90
53282;DHT22;39167;52.794;6.892;2023-05-14T08:20:48;15.20;99.90
53282;DHT22;39167;52.794;6.892;2023-05-14T08:23:13;15.20;99.90
53282;DHT22;39167;52.794;6.892;2023-05-14T08:25:39;15.30;99.90
53282;DHT22;39167;52.794;6.892;2023-05-14T08:28:05;15.30;99.90
53282;DHT22;39167;52.794;6.892;2023-05-14T08:30:31;15.40;99.90
53282;DHT22;39167;52.794;6.892;2023-05-14T08:32:57;15.50;99.90
53282;DHT22;39167;52.794;6.892;2023-05-14T08:35:23;15.60;99.90
53282;DHT22;39167;52.794;6.892;2023-05-14T08:37:49;15.60;99.90
53282;DHT22;39167;52.794;6.892;2023-05-14T08:40:16;15.60;99.90
53282;DHT22;39167;52.794;6.892;2023-05-14T08:42:43;15.70;99.90
53282;DHT22;39167;52.794;6.892;2023-05-14T08:47:35;15.80;99.90
53282;DHT22;39167;52.794;6.892;2023-05-14T08:50:06;15.80;99.90
53282;DHT22;39167;52.794;6.892;2023-05-14T08:52:33;15.90;99.90
53282;DHT22;39167;52.794;6.892;2023-05-14T08:55:04;15.80;99.90
53282;DHT22;39167;52.794;6.892;2023-05-14T08:57:32;15.90;99.90
53282;DHT22;39167;52.794;6.892;2023-05-14T08:59:58;15.90;99.90
53282;DHT22;39167;52.794;6.892;2023-05-14T09:02:27;16.00;99.90
53282;DHT22;39167;52.794;6.892;2023-05-14T09:04:58;16.00;99.90
53282;DHT22;39167;52.794;6.892;2023-05-14T09:07:24;16.10;99.90
53282;DHT22;39167;52.794;6.892;2023-05-14T09:09:51;16.10;99.90
53282;DHT22;39167;52.794;6.892;2023-05-14T09:12:17;16.30;99.90
53282;DHT22;39167;52.794;6.892;2023-05-14T09:14:44;16.30;99.90
53282;DHT22;39167;52.794;6.892;2023-05-14T09:17:10;16.50;99.90
53282;DHT22;39167;52.794;6.892;2023-05-14T09:19:40;16.50;99.90
53282;DHT22;39167;52.794;6.892;2023-05-14T09:22:16;16.70;99.90
53282;DHT22;39167;52.794;6.892;2023-05-14T09:24:42;16.70;99.90
53282;DHT22;39167;52.794;6.892;2023-05-14T09:27:13;16.80;99.90
53282;DHT22;39167;52.794;6.892;2023-05-14T09:29:40;16.90;99.90
53282;DHT22;39167;52.794;6.892;2023-05-14T09:32:06;17.00;99.90
53282;DHT22;39167;52.794;6.892;2023-05-14T09:34:34;17.10;99.90
53282;DHT22;39167;52.794;6.892;2023-05-14T09:37:09;17.20;99.90
53282;DHT22;39167;52.794;6.892;2023-05-14T09:39:36;17.30;99.90
53282;DHT22;39167;52.794;6.892;2023-05-14T09:42:02;17.40;99.90
53282;DHT22;39167;52.794;6.892;2023-05-14T09:44:28;17.40;99.90
53282;DHT22;39167;52.794;6.892;2023-05-14T09:46:54;17.50;99.90
53282;DHT22;39167;52.794;6.892;2023-05-14T09:49:20;17.50;99.90
53282;DHT22;39167;52.794;6.892;2023-05-14T09:51:47;17.60;99.90
53282;DHT22;39167;52.794;6.892;2023-05-14T09:54:13;17.60;99.90
53282;DHT22;39167;52.794;6.892;2023-05-14T09:56:39;17.70;99.90
53282;DHT22;39167;52.794;6.892;2023-05-14T09:59:05;17.80;99.90
53282;DHT22;39167;52.794;6.892;2023-05-14T10:01:31;17.90;99.90
53282;DHT22;39167;52.794;6.892;2023-05-14T10:03:58;17.90;99.90
53282;DHT22;39167;52.794;6.892;2023-05-14T10:06:35;18.00;99.90
53282;DHT22;39167;52.794;6.892;2023-05-14T11:03:45;19.00;99.90
53282;DHT22;39167;52.794;6.892;2023-05-14T11:06:13;19.10;99.90
53282;DHT22;39167;52.794;6.892;2023-05-14T11:08:39;19.20;99.90
53282;DHT22;39167;52.794;6.892;2023-05-14T11:11:07;19.30;99.90
53282;DHT22;39167;52.794;6.892;2023-05-14T11:13:33;19.30;99.90
53282;DHT22;39167;52.794;6.892;2023-05-14T11:16:00;19.40;99.90
53282;DHT22;39167;52.794;6.892;2023-05-14T11:18:27;19.40;99.90
53282;DHT22;39167;52.794;6.892;2023-05-14T11:21:00;19.40;99.90
53282;DHT22;39167;52.794;6.892;2023-05-14T11:23:26;19.40;99.90
53282;DHT22;39167;52.794;6.892;2023-05-14T11:25:52;19.40;99.90
53282;DHT22;39167;52.794;6.892;2023-05-14T11:28:22;19.50;99.90
53282;DHT22;39167;52.794;6.892;2023-05-14T11:30:49;19.50;99.90
53282;DHT22;39167;52.794;6.892;2023-05-14T11:33:16;19.60;99.90
53282;DHT22;39167;52.794;6.892;2023-05-14T11:35:42;19.60;99.90
53282;DHT22;39167;52.794;6.892;2023-05-14T11:38:16;19.70;99.90
53282;DHT22;39167;52.794;6.892;2023-05-14T11:40:53;19.80;99.90
53282;DHT22;39167;52.794;6.892;2023-05-14T11:43:19;19.80;99.90
53282;DHT22;39167;52.794;6.892;2023-05-14T11:45:51;19.90;99.90
53282;DHT22;39167;52.794;6.892;2023-05-14T11:48:18;19.90;99.90
53282;DHT22;39167;52.794;6.892;2023-05-14T11:50:48;20.00;99.90
53282;DHT22;39167;52.794;6.892;2023-05-14T11:53:16;20.10;99.90
53282;DHT22;39167;52.794;6.892;2023-05-14T11:55:41;20.10;99.90
53282;DHT22;39167;52.794;6.892;2023-05-14T11:58:07;20.10;99.90
53282;DHT22;39167;52.794;6.892;2023-05-14T12:00:33;20.10;99.90
53282;DHT22;39167;52.794;6.892;2023-05-14T12:02:59;20.20;99.90
53282;DHT22;39167;52.794;6.892;2023-05-14T12:05:25;20.30;99.90
53282;DHT22;39167;52.794;6.892;2023-05-14T12:07:50;20.40;99.90
53282;DHT22;39167;52.794;6.892;2023-05-14T12:10:16;20.50;99.90
53282;DHT22;39167;52.794;6.892;2023-05-14T12:12:44;20.50;99.90
53282;DHT22;39167;52.794;6.892;2023-05-14T12:15:12;20.60;99.90
53282;DHT22;39167;52.794;6.892;2023-05-14T12:17:38;20.70;99.90
53282;DHT22;39167;52.794;6.892;2023-05-14T12:20:08;20.80;99.90
53282;DHT22;39167;52.794;6.892;2023-05-14T12:22:35;20.80;99.90
53282;DHT22;39167;52.794;6.892;2023-05-14T12:25:01;20.90;99.90
53282;DHT22;39167;52.794;6.892;2023-05-14T12:27:27;21.00;99.90
53282;DHT22;39167;52.794;6.892;2023-05-14T12:30:04;21.10;99.90
53282;DHT22;39167;52.794;6.892;2023-05-14T12:32:33;21.20;99.90
53282;DHT22;39167;52.794;6.892;2023-05-14T12:34:59;21.10;99.90
53282;DHT22;39167;52.794;6.892;2023-05-14T12:37:28;21.20;99.90
53282;DHT22;39167;52.794;6.892;2023-05-14T12:39:53;21.20;99.90
53282;DHT22;39167;52.794;6.892;2023-05-14T12:42:19;21.20;99.90
53282;DHT22;39167;52.794;6.892;2023-05-14T12:44:45;21.20;99.90
53282;DHT22;39167;52.794;6.892;2023-05-14T12:47:11;21.30;99.90
53282;DHT22;39167;52.794;6.892;2023-05-14T12:49:36;21.20;99.90
53282;DHT22;39167;52.794;6.892;2023-05-14T12:52:03;21.20;99.90
53282;DHT22;39167;52.794;6.892;2023-05-14T12:54:29;21.30;99.90
53282;DHT22;39167;52.794;6.892;2023-05-14T12:56:56;21.30;99.90
53282;DHT22;39167;52.794;6.892;2023-05-14T12:59:22;21.30;99.90
53282;DHT22;39167;52.794;6.892;2023-05-14T13:01:48;21.40;99.90
53282;DHT22;39167;52.794;6.892;2023-05-14T13:04:14;21.40;99.90
53282;DHT22;39167;52.794;6.892;2023-05-14T13:06:40;21.40;99.90
53282;DHT22;39167;52.794;6.892;2023-05-14T13:09:06;21.40;99.90
53282;DHT22;39167;52.794;6.892;2023-05-14T13:11:33;21.40;99.90
53282;DHT22;39167;52.794;6.892;2023-05-14T13:13:59;21.30;99.90
53282;DHT22;39167;52.794;6.892;2023-05-14T13:16:26;21.30;99.90
53282;DHT22;39167;52.794;6.892;2023-05-14T13:18:53;21.30;99.90
53282;DHT22;39167;52.794;6.892;2023-05-14T13:21:19;21.30;99.90
53282;DHT22;39167;52.794;6.892;2023-05-14T13:23:45;21.30;99.90
53282;DHT22;39167;52.794;6.892;2023-05-14T13:26:11;21.30;99.90
53282;DHT22;39167;52.794;6.892;2023-05-14T13:28:39;21.40;99.90
53282;DHT22;39167;52.794;6.892;2023-05-14T13:31:12;21.40;99.90
53282;DHT22;39167;52.794;6.892;2023-05-14T13:33:42;21.30;99.90
53282;DHT22;39167;52.794;6.892;2023-05-14T13:36:10;21.30;99.90
53282;DHT22;39167;52.794;6.892;2023-05-14T13:38:36;21.30;99.90
53282;DHT22;39167;52.794;6.892;2023-05-14T13:41:02;21.30;99.90
53282;DHT22;39167;52.794;6.892;2023-05-14T13:43:33;21.30;99.90
53282;DHT22;39167;52.794;6.892;2023-05-14T13:45:59;21.20;99.90
53282;DHT22;39167;52.794;6.892;2023-05-14T13:48:26;21.20;99.90
53282;DHT22;39167;52.794;6.892;2023-05-14T13:50:52;21.20;99.90
53282;DHT22;39167;52.794;6.892;2023-05-14T13:53:19;21.20;99.90
53282;DHT22;39167;52.794;6.892;2023-05-14T13:55:45;21.20;99.90
53282;DHT22;39167;52.794;6.892;2023-05-14T13:58:11;21.20;99.90
53282;DHT22;39167;52.794;6.892;2023-05-14T14:00:37;21.20;99.90
53282;DHT22;39167;52.794;6.892;2023-05-14T14:03:03;21.20;99.90
53282;DHT22;39167;52.794;6.892;2023-05-14T14:05:29;21.30;99.90
53282;DHT22;39167;52.794;6.892;2023-05-14T14:07:55;21.40;99.90
53282;DHT22;39167;52.794;6.892;2023-05-14T14:10:21;21.30;99.90
53282;DHT22;39167;52.794;6.892;2023-05-14T14:12:47;21.20;99.90
53282;DHT22;39167;52.794;6.892;2023-05-14T14:15:17;21.30;99.90
53282;DHT22;39167;52.794;6.892;2023-05-14T14:17:43;21.30;99.90
53282;DHT22;39167;52.794;6.892;2023-05-14T14:20:09;21.30;99.90
53282;DHT22;39167;52.794;6.892;2023-05-14T14:22:35;21.40;99.90
53282;DHT22;39167;52.794;6.892;2023-05-14T14:25:01;21.40;99.90
53282;DHT22;39167;52.794;6.892;2023-05-14T14:27:27;21.40;99.90
53282;DHT22;39167;52.794;6.892;2023-05-14T14:29:55;21.40;99.90
53282;DHT22;39167;52.794;6.892;2023-05-14T14:32:21;21.20;99.90
53282;DHT22;39167;52.794;6.892;2023-05-14T14:34:47;21.50;99.90
53282;DHT22;39167;52.794;6.892;2023-05-14T14:37:12;21.60;99.90
